Terminal Aerodrome Forecast
Issued by NWS

Current Version | Previous Version | Text Only | Print | Product List | Glossary On
Versions: 1 2 3 4 5 6 7 8 9 10 11 12 13 14 15 16 17 18 19 20 21 22 23 24 25 26 27 28
000
FTUS41 KILN 240339 AAF
TAFLUK
TAF AMD
KLUK 240339Z 2404/2424 31004KT P6SM SCT025 BKN070
     FM240600 32006KT P6SM FEW040 SCT250
      TEMPO 2408/2412 00000KT 3SM BR SKC
     FM241400 28008KT P6SM SCT250=

USA.gov is the U.S. government's official web portal to all federal, state and local government web resources and services.